Time;durP1;ratioP1;P1;durP2;ratioP2;P2;SDS_P1;SDS_P2;PMS_P1;PMS_P2;Temp;Humidity;BMP_temperature;BMP_pressure;BME280_temperature;BME280_humidity;BME280_pressure;Samples;Min_cycle;Max_cycle;Signal;HPM_P1;HPM_P2
2023/06/09 00:00:19;;;;;;;9.77;2.78;;;15.60;99.90;;;;;;5069003;28;20172;-68
2023/06/09 00:02:50;;;;;;;8.25;3.03;;;15.40;99.90;;;;;;5059890;28;20184;-68
2023/06/09 00:05:17;;;;;;;8.02;3.28;;;15.40;99.90;;;;;;5071239;28;20193;-69
2023/06/09 00:07:44;;;;;;;10.52;3.47;;;15.40;99.90;;;;;;5069028;28;20177;-68
2023/06/09 00:10:10;;;;;;;7.20;2.95;;;15.40;99.90;;;;;;5055589;28;20403;-69
2023/06/09 00:12:36;;;;;;;12.38;2.97;;;15.30;99.90;;;;;;5051168;28;20200;-68
2023/06/09 00:15:02;;;;;;;13.32;3.38;;;15.20;99.90;;;;;;5051022;28;20177;-69
2023/06/09 00:17:27;;;;;;;12.82;3.03;;;15.20;99.90;;;;;;5054780;28;20173;-69
2023/06/09 00:20:01;;;;;;;11.10;3.33;;;15.10;99.90;;;;;;5067846;28;20548;-68
2023/06/09 00:22:26;;;;;;;8.18;2.75;;;15.10;99.90;;;;;;5070913;28;20177;-69
2023/06/09 00:24:52;;;;;;;13.15;3.28;;;15.00;99.90;;;;;;5071006;28;20176;-69
2023/06/09 00:27:18;;;;;;;8.45;3.25;;;15.00;99.90;;;;;;5075490;28;20176;-69
2023/06/09 00:29:43;;;;;;;16.75;3.78;;;15.00;99.90;;;;;;5072873;28;20200;-69
2023/06/09 00:32:11;;;;;;;6.53;2.75;;;14.90;99.90;;;;;;5071619;28;20259;-69
2023/06/09 00:34:37;;;;;;;5.82;3.15;;;14.80;99.90;;;;;;5071083;28;20173;-67
2023/06/09 00:37:03;;;;;;;11.80;3.35;;;14.90;99.90;;;;;;5071702;28;20238;-70
2023/06/09 00:39:29;;;;;;;8.38;2.97;;;14.80;99.90;;;;;;5071605;28;20569;-69
2023/06/09 00:41:55;;;;;;;10.13;3.55;;;14.70;99.90;;;;;;5071212;28;20172;-70
2023/06/09 00:44:20;;;;;;;11.43;3.35;;;14.60;99.90;;;;;;5071375;28;20248;-69
2023/06/09 00:46:46;;;;;;;13.85;3.97;;;14.70;99.90;;;;;;5071873;28;20692;-70
2023/06/09 00:49:12;;;;;;;11.38;3.70;;;14.60;99.90;;;;;;5071101;28;20212;-71
2023/06/09 00:51:39;;;;;;;9.82;3.42;;;14.50;99.90;;;;;;5071076;28;20169;-68
2023/06/09 00:54:05;;;;;;;8.88;3.17;;;14.50;99.90;;;;;;5070890;28;20215;-69
2023/06/09 00:56:33;;;;;;;11.10;3.60;;;14.50;99.90;;;;;;5070665;28;20171;-69
2023/06/09 00:58:58;;;;;;;15.38;3.15;;;14.50;99.90;;;;;;5070878;28;20225;-70
2023/06/09 01:01:24;;;;;;;10.52;3.83;;;14.50;99.90;;;;;;5070710;28;20252;-70
2023/06/09 01:03:50;;;;;;;8.70;3.35;;;14.60;99.90;;;;;;5070567;28;20272;-69
2023/06/09 01:06:38;;;;;;;7.88;2.85;;;14.50;99.90;;;;;;5070771;28;20676;-70
2023/06/09 01:09:10;;;;;;;12.48;3.40;;;14.40;99.90;;;;;;5070738;28;20259;-72
2023/06/09 01:12:03;;;;;;;6.35;3.10;;;14.40;99.90;;;;;;5061604;28;20173;-71
2023/06/09 01:14:48;;;;;;;8.82;3.72;;;14.40;99.90;;;;;;5054354;28;20219;-71
2023/06/09 01:17:18;;;;;;;10.45;4.03;;;14.40;99.90;;;;;;5054536;28;20188;-71
2023/06/09 01:19:47;;;;;;;14.40;3.53;;;14.40;99.90;;;;;;5054684;28;20182;-71
2023/06/09 01:22:25;;;;;;;10.82;3.95;;;14.30;99.90;;;;;;5055345;28;20655;-70
2023/06/09 01:25:18;;;;;;;13.40;4.10;;;14.20;99.90;;;;;;5054221;28;20695;-69
2023/06/09 01:27:45;;;;;;;11.98;4.07;;;14.20;99.90;;;;;;5054161;28;20192;-70
2023/06/09 01:30:13;;;;;;;14.65;4.10;;;14.10;99.90;;;;;;5054119;28;20213;-69
2023/06/09 01:32:40;;;;;;;13.27;3.92;;;15.60;99.90;;;;;;5066896;28;20673;-69
2023/06/09 01:35:07;;;;;;;12.00;4.00;;;14.10;99.90;;;;;;5073926;28;20184;-69
2023/06/09 01:37:33;;;;;;;8.45;4.07;;;14.10;99.90;;;;;;5067702;28;20280;-71
2023/06/09 01:39:59;;;;;;;10.13;3.72;;;14.00;99.90;;;;;;5074012;28;20180;-71
2023/06/09 01:42:25;;;;;;;10.93;3.55;;;13.90;99.90;;;;;;5074023;28;20160;-71
2023/06/09 01:44:50;;;;;;;8.98;3.90;;;13.90;99.90;;;;;;5073821;28;20524;-70
2023/06/09 01:47:19;;;;;;;10.60;4.25;;;13.90;99.90;;;;;;5073773;28;20580;-71
2023/06/09 01:50:04;;;;;;;14.40;3.65;;;13.90;99.90;;;;;;5073477;28;20216;-71
2023/06/09 01:52:54;;;;;;;17.42;4.13;;;13.80;99.90;;;;;;5073697;28;20172;-70
2023/06/09 01:55:38;;;;;;;11.77;4.15;;;13.70;99.90;;;;;;5073760;28;20207;-70
2023/06/09 01:58:03;;;;;;;12.18;3.85;;;13.70;99.90;;;;;;5073587;28;20212;-70
2023/06/09 02:00:30;;;;;;;16.33;5.30;;;13.70;99.90;;;;;;5073759;28;20167;-71
2023/06/09 02:02:59;;;;;;;7.75;3.83;;;13.70;99.90;;;;;;5073604;28;20169;-70
2023/06/09 02:05:26;;;;;;;17.13;4.55;;;13.60;99.90;;;;;;5073457;28;20255;-71
2023/06/09 02:07:53;;;;;;;11.05;4.60;;;13.60;99.90;;;;;;5073463;28;20255;-70
2023/06/09 02:10:22;;;;;;;14.05;4.53;;;13.40;99.90;;;;;;5073259;28;20239;-70
2023/06/09 02:12:48;;;;;;;12.50;4.13;;;13.50;99.90;;;;;;5072091;28;20627;-70
2023/06/09 02:15:13;;;;;;;10.32;4.10;;;13.50;99.90;;;;;;5070729;28;20187;-70
2023/06/09 02:17:39;;;;;;;8.32;4.03;;;13.50;99.90;;;;;;5061801;28;20534;-71
2023/06/09 02:20:08;;;;;;;11.63;4.75;;;13.50;99.90;;;;;;5073163;28;20251;-72
2023/06/09 02:22:35;;;;;;;17.77;4.25;;;13.50;99.90;;;;;;5057774;28;20189;-72
2023/06/09 02:25:01;;;;;;;13.35;4.63;;;13.50;99.90;;;;;;5053167;28;20174;-73
2023/06/09 02:27:27;;;;;;;11.32;4.40;;;13.40;99.90;;;;;;5071169;28;20267;-68
2023/06/09 02:29:53;;;;;;;13.73;4.30;;;;;;;;;;5073056;28;20295;-69
2023/06/09 02:32:18;;;;;;;12.02;4.30;;;13.40;99.90;;;;;;5072962;28;20244;-68
2023/06/09 02:34:45;;;;;;;15.40;4.75;;;13.40;99.90;;;;;;5072501;28;20223;-67
2023/06/09 02:37:11;;;;;;;11.55;4.00;;;13.30;99.90;;;;;;5055785;28;20271;-67
2023/06/09 02:39:36;;;;;;;16.10;4.78;;;13.20;99.90;;;;;;5063696;28;20185;-66
2023/06/09 02:42:03;;;;;;;18.70;4.68;;;13.20;99.90;;;;;;5060940;28;20200;-67
2023/06/09 02:44:31;;;;;;;10.23;4.45;;;13.20;99.90;;;;;;5052788;28;20654;-67
2023/06/09 02:46:58;;;;;;;10.63;4.50;;;13.20;99.90;;;;;;5052710;28;20185;-67
2023/06/09 02:49:24;;;;;;;12.65;4.13;;;13.10;99.90;;;;;;5061256;28;20724;-67
2023/06/09 02:51:49;;;;;;;18.58;4.80;;;13.10;99.90;;;;;;5070697;28;20208;-67
2023/06/09 02:54:15;;;;;;;15.75;4.43;;;13.00;99.90;;;;;;5065601;28;20176;-70
2023/06/09 02:56:41;;;;;;;14.32;4.18;;;13.10;99.90;;;;;;5055899;28;20264;-72
2023/06/09 02:59:07;;;;;;;14.68;4.40;;;13.10;99.90;;;;;;5072270;28;20218;-71
2023/06/09 03:01:35;;;;;;;8.77;4.70;;;13.20;99.90;;;;;;5067250;28;20223;-71
2023/06/09 03:04:07;;;;;;;14.68;4.50;;;13.10;99.90;;;;;;5072391;28;20180;-72
2023/06/09 03:06:43;;;;;;;13.40;4.63;;;13.10;99.90;;;;;;5072323;28;20670;-71
2023/06/09 03:09:10;;;;;;;15.98;4.78;;;13.00;99.90;;;;;;5071752;28;20264;-71
2023/06/09 03:11:36;;;;;;;11.38;4.63;;;13.00;99.90;;;;;;5056971;28;20488;-70
2023/06/09 03:14:02;;;;;;;14.43;4.63;;;12.90;99.90;;;;;;5060005;28;20550;-69
2023/06/09 03:16:27;;;;;;;14.90;4.53;;;12.90;99.90;;;;;;5073525;28;20239;-74
2023/06/09 03:18:54;;;;;;;12.43;4.60;;;12.90;99.90;;;;;;5079834;28;20216;-74
2023/06/09 03:21:24;;;;;;;10.80;4.63;;;12.80;99.90;;;;;;5057576;28;20284;-73
2023/06/09 03:23:50;;;;;;;13.40;4.68;;;12.90;99.90;;;;;;5058335;28;20192;-73
2023/06/09 03:26:17;;;;;;;12.02;4.65;;;13.00;99.90;;;;;;5073061;28;20169;-72
2023/06/09 03:28:43;;;;;;;10.50;4.60;;;12.90;99.90;;;;;;5069529;28;20205;-73
2023/06/09 03:31:09;;;;;;;11.82;4.60;;;12.90;99.90;;;;;;5056168;28;20238;-74
2023/06/09 03:33:35;;;;;;;10.23;4.50;;;12.90;99.90;;;;;;5061769;28;20173;-75
2023/06/09 03:36:01;;;;;;;13.38;5.10;;;12.90;99.90;;;;;;5051538;28;20220;-69
2023/06/09 03:38:26;;;;;;;12.02;4.95;;;12.80;99.90;;;;;;5051749;28;20158;-70
2023/06/09 03:40:52;;;;;;;12.95;4.88;;;12.80;99.90;;;;;;5051869;28;20176;-68
2023/06/09 03:43:18;;;;;;;14.27;4.97;;;12.80;99.90;;;;;;5052857;28;20637;-69
2023/06/09 03:45:43;;;;;;;14.50;5.30;;;12.70;99.90;;;;;;5066015;28;20184;-68
2023/06/09 03:48:09;;;;;;;16.35;5.60;;;12.70;99.90;;;;;;5059624;28;20712;-68
2023/06/09 03:50:35;;;;;;;17.90;5.25;;;12.70;99.90;;;;;;5059958;28;20262;-68
2023/06/09 03:53:00;;;;;;;9.90;5.38;;;12.60;99.90;;;;;;5051373;28;20637;-68
2023/06/09 03:55:29;;;;;;;11.98;5.00;;;12.70;99.90;;;;;;5056180;28;20246;-68
2023/06/09 03:57:55;;;;;;;8.88;4.43;;;12.70;99.90;;;;;;5071574;28;20169;-68
2023/06/09 04:00:21;;;;;;;14.75;5.60;;;12.70;99.90;;;;;;5071315;28;20504;-68
2023/06/09 04:02:47;;;;;;;17.43;5.47;;;12.70;99.90;;;;;;5071347;28;20180;-72
2023/06/09 04:05:12;;;;;;;16.02;5.20;;;12.80;99.90;;;;;;5071231;28;20624;-71
2023/06/09 04:07:39;;;;;;;16.27;5.60;;;12.80;99.90;;;;;;5071535;28;20611;-72
2023/06/09 04:10:05;;;;;;;13.35;5.90;;;12.80;99.90;;;;;;5071334;28;20212;-71
2023/06/09 04:12:31;;;;;;;13.63;4.93;;;12.70;99.90;;;;;;5071238;28;20196;-72
2023/06/09 04:14:57;;;;;;;14.60;5.28;;;12.70;99.90;;;;;;5071373;28;20639;-71
2023/06/09 04:17:22;;;;;;;13.02;5.07;;;12.80;99.90;;;;;;5071103;28;20168;-72
2023/06/09 04:19:48;;;;;;;13.98;5.70;;;12.80;99.90;;;;;;5070989;28;20177;-70
2023/06/09 04:22:14;;;;;;;13.75;5.22;;;12.80;99.90;;;;;;5071097;28;20180;-71
2023/06/09 04:24:40;;;;;;;19.13;5.50;;;12.80;99.90;;;;;;5071156;28;20177;-71
2023/06/09 04:27:05;;;;;;;12.48;5.68;;;12.90;99.90;;;;;;5071024;28;20661;-71
2023/06/09 04:29:34;;;;;;;18.02;5.53;;;12.80;99.90;;;;;;5070897;28;20216;-70
2023/06/09 04:32:00;;;;;;;17.47;5.67;;;12.90;99.90;;;;;;5071069;28;20169;-69
2023/06/09 04:34:27;;;;;;;15.65;5.90;;;12.90;99.90;;;;;;5070961;28;20176;-69
2023/06/09 04:36:53;;;;;;;17.65;5.60;;;12.80;99.90;;;;;;5070804;28;20212;-68
2023/06/09 04:39:19;;;;;;;13.90;5.43;;;12.90;99.90;;;;;;5070941;28;20226;-70
2023/06/09 04:41:47;;;;;;;11.88;5.82;;;13.00;99.90;;;;;;5070737;28;20629;-70
2023/06/09 04:44:13;;;;;;;13.97;5.27;;;13.10;99.90;;;;;;5070862;28;20168;-70
2023/06/09 04:46:40;;;;;;;12.35;4.97;;;13.00;99.90;;;;;;5072517;28;20221;-70
2023/06/09 04:49:09;;;;;;;15.05;5.63;;;13.00;99.90;;;;;;5065754;28;20303;-71
2023/06/09 04:51:46;;;;;;;14.52;5.43;;;13.00;99.90;;;;;;5054918;28;20702;-69
2023/06/09 04:54:16;;;;;;;16.80;5.53;;;13.00;99.90;;;;;;5054812;28;20203;-70
2023/06/09 04:56:43;;;;;;;17.30;5.40;;;13.10;99.90;;;;;;5055034;28;20173;-70
2023/06/09 04:59:12;;;;;;;19.75;5.97;;;13.10;99.90;;;;;;5064217;28;20180;-74
2023/06/09 05:01:41;;;;;;;18.95;5.15;;;13.10;99.90;;;;;;5073225;28;20189;-74
2023/06/09 05:04:07;;;;;;;14.32;5.22;;;13.10;99.90;;;;;;5073972;28;20570;-75
2023/06/09 05:06:33;;;;;;;18.15;5.72;;;13.10;99.90;;;;;;5058746;28;20180;-75
2023/06/09 05:08:58;;;;;;;18.50;5.60;;;13.20;99.90;;;;;;5062698;28;20563;-75
2023/06/09 05:11:24;;;;;;;14.02;5.15;;;13.20;99.90;;;;;;5073170;28;20180;-73
2023/06/09 05:13:50;;;;;;;14.23;5.75;;;13.20;99.90;;;;;;5074392;28;20165;-73
2023/06/09 05:16:15;;;;;;;18.27;5.35;;;13.20;99.90;;;;;;5074570;28;20204;-74
2023/06/09 05:18:44;;;;;;;15.50;5.15;;;13.30;99.90;;;;;;5074467;28;20557;-73
2023/06/09 05:21:12;;;;;;;14.90;5.43;;;13.40;99.90;;;;;;5074721;28;20176;-73
2023/06/09 05:23:37;;;;;;;11.18;5.00;;;13.80;99.90;;;;;;5074442;28;20199;-73
2023/06/09 05:26:03;;;;;;;14.02;4.70;;;13.40;99.90;;;;;;5074352;28;20538;-73
2023/06/09 05:28:28;;;;;;;15.07;4.95;;;13.40;99.90;;;;;;5074603;28;20256;-73
2023/06/09 05:30:54;;;;;;;17.30;6.28;;;13.40;99.90;;;;;;5074251;28;20211;-72
2023/06/09 05:33:20;;;;;;;18.25;6.05;;;13.60;99.90;;;;;;5074129;28;20621;-71
2023/06/09 05:35:47;;;;;;;20.77;6.20;;;13.60;99.90;;;;;;5073833;28;20228;-71
2023/06/09 05:38:12;;;;;;;17.10;6.57;;;13.60;99.90;;;;;;5073969;28;20204;-71
2023/06/09 05:40:38;;;;;;;15.13;5.53;;;13.60;99.90;;;;;;5073890;28;20211;-72
2023/06/09 05:43:03;;;;;;;19.63;5.97;;;13.70;99.90;;;;;;5061341;28;20216;-71
2023/06/09 05:45:29;;;;;;;18.35;5.38;;;13.80;99.90;;;;;;5072711;28;20233;-71
2023/06/09 05:47:55;;;;;;;13.77;5.32;;;13.80;99.90;;;;;;5068344;28;20599;-71
2023/06/09 05:50:20;;;;;;;13.68;5.38;;;13.80;99.90;;;;;;5053635;28;20208;-71
2023/06/09 05:52:46;;;;;;;17.67;5.25;;;13.70;99.90;;;;;;5054023;28;20257;-71
2023/06/09 05:55:12;;;;;;;12.45;5.45;;;13.80;99.90;;;;;;5055846;28;20551;-73
2023/06/09 05:57:40;;;;;;;20.02;5.80;;;14.20;99.90;;;;;;5061853;28;20229;-73
2023/06/09 06:00:09;;;;;;;17.65;5.63;;;13.90;99.90;;;;;;5068027;28;20268;-74
2023/06/09 06:02:35;;;;;;;14.73;5.45;;;14.00;99.90;;;;;;5086240;28;20164;-73
2023/06/09 06:05:03;;;;;;;18.00;5.85;;;13.90;99.90;;;;;;5077701;28;20176;-73
2023/06/09 06:07:28;;;;;;;13.15;4.90;;;13.90;99.90;;;;;;5075338;28;20169;-73
2023/06/09 06:09:54;;;;;;;15.02;5.88;;;14.00;99.90;;;;;;5077541;28;20208;-72
2023/06/09 06:12:20;;;;;;;13.88;5.22;;;14.00;99.90;;;;;;5055839;28;20267;-73
2023/06/09 06:14:46;;;;;;;17.40;5.47;;;14.10;99.90;;;;;;5068797;28;20196;-72
2023/06/09 06:17:11;;;;;;;16.80;5.38;;;14.20;99.90;;;;;;5073475;28;20169;-73
2023/06/09 06:19:37;;;;;;;16.65;4.85;;;14.20;99.90;;;;;;5073855;28;20173;-73
2023/06/09 06:22:04;;;;;;;13.68;4.78;;;14.10;99.90;;;;;;5073503;28;20555;-71
2023/06/09 06:24:29;;;;;;;18.45;5.47;;;14.30;99.90;;;;;;5073379;28;20291;-69
2023/06/09 06:26:55;;;;;;;21.88;5.75;;;14.30;99.90;;;;;;5073571;28;20252;-70
2023/06/09 06:29:20;;;;;;;15.52;4.95;;;14.30;99.90;;;;;;5073771;28;20204;-70
2023/06/09 06:31:48;;;;;;;19.00;5.15;;;14.50;99.90;;;;;;5073356;28;20598;-70
2023/06/09 06:34:14;;;;;;;13.80;4.70;;;14.60;99.90;;;;;;5073550;28;20236;-70
2023/06/09 06:36:40;;;;;;;18.20;5.13;;;14.60;99.90;;;;;;5070914;28;20232;-68
2023/06/09 06:39:06;;;;;;;19.17;5.18;;;14.60;99.90;;;;;;5071845;28;20680;-67
2023/06/09 06:41:31;;;;;;;15.35;5.38;;;14.60;99.90;;;;;;5060075;28;20173;-68
2023/06/09 06:43:57;;;;;;;16.92;5.20;;;14.80;99.90;;;;;;5060470;28;20185;-67
2023/06/09 06:46:22;;;;;;;15.18;4.80;;;14.90;99.90;;;;;;5056210;28;20656;-66
2023/06/09 06:48:48;;;;;;;15.23;4.78;;;14.90;99.90;;;;;;5072672;28;20196;-77
2023/06/09 06:51:14;;;;;;;12.60;4.40;;;15.00;99.90;;;;;;5065555;28;20176;-74
2023/06/09 06:53:39;;;;;;;16.25;5.10;;;15.10;99.90;;;;;;5064438;28;20195;-75
2023/06/09 06:56:05;;;;;;;13.10;4.65;;;15.10;99.90;;;;;;5072758;28;20632;-76
2023/06/09 06:58:31;;;;;;;18.10;5.65;;;14.90;99.90;;;;;;5072651;28;20260;-75
2023/06/09 07:00:57;;;;;;;12.85;4.35;;;15.00;99.90;;;;;;5072799;28;20181;-75
2023/06/09 07:03:26;;;;;;;19.27;5.22;;;14.90;99.90;;;;;;5072973;28;20238;-77
2023/06/09 07:05:53;;;;;;;14.48;5.00;;;14.90;99.90;;;;;;5072478;28;20652;-73
2023/06/09 07:08:19;;;;;;;11.63;4.25;;;15.00;99.90;;;;;;5053525;28;20640;-75
2023/06/09 07:10:45;;;;;;;17.80;4.85;;;14.90;99.90;;;;;;5053712;28;20187;-73
2023/06/09 07:13:10;;;;;;;15.68;4.85;;;15.10;99.90;;;;;;5053466;28;20173;-72
2023/06/09 07:15:37;;;;;;;10.85;4.43;;;15.20;99.90;;;;;;5052675;28;20635;-71
2023/06/09 07:18:05;;;;;;;16.42;5.15;;;15.50;99.90;;;;;;5035433;28;20189;-70
2023/06/09 07:20:31;;;;;;;21.65;5.70;;;15.60;99.90;;;;;;5035773;28;20195;-67
2023/06/09 07:22:57;;;;;;;17.63;5.07;;;15.70;99.90;;;;;;5052218;28;20723;-67
2023/06/09 07:25:23;;;;;;;17.00;4.57;;;15.80;99.90;;;;;;5051873;28;20268;-66
2023/06/09 07:27:48;;;;;;;13.82;4.90;;;15.80;99.90;;;;;;5052661;28;20575;-69
2023/06/09 07:30:14;;;;;;;16.10;4.70;;;15.80;99.90;;;;;;5052382;28;20209;-69
2023/06/09 07:32:40;;;;;;;13.75;4.50;;;15.90;99.90;;;;;;5064787;28;20169;-67
2023/06/09 07:35:06;;;;;;;11.20;4.55;;;16.10;99.90;;;;;;5072125;28;20195;-67
2023/06/09 07:37:31;;;;;;;14.95;5.60;;;16.20;99.90;;;;;;5059095;28;20225;-74
2023/06/09 07:39:58;;;;;;;10.93;4.47;;;16.10;99.90;;;;;;5051596;28;20188;-65
2023/06/09 07:42:23;;;;;;;14.07;4.68;;;16.10;99.90;;;;;;5051642;28;20180;-64
2023/06/09 07:44:49;;;;;;;15.20;4.45;;;16.40;99.90;;;;;;5051553;28;20173;-64
2023/06/09 07:47:15;;;;;;;16.70;5.18;;;16.50;99.90;;;;;;5060857;28;20172;-63
2023/06/09 07:49:40;;;;;;;13.60;4.63;;;16.50;99.90;;;;;;5047611;28;20287;-72
2023/06/09 07:52:07;;;;;;;15.02;5.18;;;16.50;99.90;;;;;;5054254;28;20683;-71
2023/06/09 07:54:33;;;;;;;10.38;4.28;;;16.50;99.90;;;;;;5051322;28;20765;-65
2023/06/09 07:56:58;;;;;;;15.27;4.55;;;16.50;99.90;;;;;;5051009;28;20197;-66
2023/06/09 07:59:24;;;;;;;17.52;4.93;;;16.70;99.90;;;;;;5051131;28;20177;-65
2023/06/09 08:01:49;;;;;;;18.90;4.80;;;17.00;99.90;;;;;;5051242;28;20208;-65
2023/06/09 08:04:15;;;;;;;10.60;4.30;;;17.00;99.90;;;;;;5067436;28;20173;-63
2023/06/09 08:06:41;;;;;;;12.55;4.97;;;17.00;99.90;;;;;;5071194;28;20195;-64
2023/06/09 08:09:08;;;;;;;13.43;4.38;;;17.00;99.90;;;;;;5070916;28;20219;-64
2023/06/09 08:11:34;;;;;;;15.32;5.32;;;16.90;99.90;;;;;;5064473;28;20181;-65
2023/06/09 08:14:00;;;;;;;13.63;4.53;;;17.10;99.90;;;;;;5051392;28;20655;-63
2023/06/09 08:16:26;;;;;;;7.78;3.78;;;17.30;99.90;;;;;;5051095;28;20505;-63
2023/06/09 08:18:51;;;;;;;15.18;5.28;;;17.20;99.90;;;;;;5055923;28;20667;-64
2023/06/09 08:21:17;;;;;;;13.90;4.93;;;17.40;99.90;;;;;;5060094;28;20181;-65
2023/06/09 08:23:44;;;;;;;14.70;4.85;;;17.60;99.90;;;;;;5050717;28;20196;-65
2023/06/09 08:26:10;;;;;;;13.50;4.60;;;17.80;99.90;;;;;;5051110;28;20177;-64
2023/06/09 08:28:36;;;;;;;11.18;4.50;;;17.90;99.90;;;;;;5050665;28;20169;-65
2023/06/09 08:31:03;;;;;;;11.75;4.68;;;18.00;99.90;;;;;;5054880;28;20189;-64
2023/06/09 08:33:33;;;;;;;17.90;4.70;;;18.30;99.90;;;;;;5067397;28;20267;-64
2023/06/09 08:35:59;;;;;;;13.50;4.60;;;18.70;99.90;;;;;;5057438;28;20224;-65
2023/06/09 08:38:25;;;;;;;19.15;4.70;;;18.60;99.90;;;;;;5050675;28;20264;-64
2023/06/09 08:40:53;;;;;;;18.23;4.40;;;18.90;99.90;;;;;;5050674;28;20336;-65
2023/06/09 08:43:19;;;;;;;18.13;4.88;;;19.10;99.90;;;;;;5068383;28;20180;-64
2023/06/09 08:45:47;;;;;;;16.25;4.60;;;19.30;99.90;;;;;;5035249;28;20643;-64
2023/06/09 08:48:18;;;;;;;11.60;4.60;;;19.50;99.90;;;;;;5052292;28;20676;-63
2023/06/09 08:50:44;;;;;;;13.35;4.03;;;19.80;99.90;;;;;;5050793;28;20209;-64
2023/06/09 08:53:10;;;;;;;13.45;4.50;;;20.10;99.90;;;;;;5051041;28;20219;-65
2023/06/09 08:55:37;;;;;;;16.27;4.53;;;20.00;99.90;;;;;;5033506;28;20177;-65
2023/06/09 08:58:03;;;;;;;14.77;4.85;;;20.60;99.90;;;;;;5050657;28;20189;-65
2023/06/09 09:00:31;;;;;;;14.27;5.32;;;20.70;99.90;;;;;;5050677;28;20185;-65
2023/06/09 09:02:57;;;;;;;12.70;4.47;;;21.10;99.90;;;;;;5050648;28;20177;-65
2023/06/09 09:05:22;;;;;;;16.98;5.13;;;21.30;99.90;;;;;;5050655;28;20181;-64
2023/06/09 09:07:49;;;;;;;17.38;5.32;;;21.40;99.90;;;;;;5051040;28;20579;-65
2023/06/09 09:10:15;;;;;;;13.07;4.80;;;21.60;99.90;;;;;;5050957;28;20224;-65
2023/06/09 09:12:51;;;;;;;13.30;5.00;;;21.70;99.90;;;;;;5032647;28;20529;-66
2023/06/09 09:15:18;;;;;;;11.25;4.53;;;22.00;99.90;;;;;;5050288;28;20262;-64
2023/06/09 09:17:46;;;;;;;11.75;4.53;;;22.40;99.90;;;;;;5050495;28;20299;-64
2023/06/09 09:20:14;;;;;;;11.30;5.03;;;22.50;99.90;;;;;;5050623;28;20191;-66
2023/06/09 09:22:50;;;;;;;17.27;5.07;;;22.10;99.90;;;;;;5050739;28;20177;-66
2023/06/09 09:25:29;;;;;;;14.55;4.25;;;22.10;99.90;;;;;;5050552;28;20173;-66
2023/06/09 09:28:04;;;;;;;14.23;5.20;;;22.50;99.90;;;;;;5050373;28;20264;-64
2023/06/09 09:30:49;;;;;;;15.18;4.57;;;22.90;99.90;;;;;;5050629;28;20220;-65
2023/06/09 09:33:23;;;;;;;10.57;4.90;;;22.60;99.90;;;;;;5052619;28;20189;-64
2023/06/09 09:35:53;;;;;;;14.05;4.93;;;22.40;99.90;;;;;;5054009;28;20236;-64
2023/06/09 09:38:24;;;;;;;12.93;5.05;;;22.80;99.90;;;;;;5053819;28;20632;-65
2023/06/09 09:40:52;;;;;;;13.10;5.10;;;23.00;99.90;;;;;;5053876;28;20165;-64
2023/06/09 09:43:19;;;;;;;15.02;5.15;;;23.30;99.90;;;;;;5053748;28;20171;-65
2023/06/09 09:45:47;;;;;;;14.70;5.18;;;23.10;99.90;;;;;;5053895;28;20177;-65
2023/06/09 09:48:15;;;;;;;11.27;5.18;;;23.30;99.90;;;;;;5053717;28;20169;-65
2023/06/09 09:50:43;;;;;;;15.63;4.80;;;23.60;99.90;;;;;;5053777;28;20215;-64
2023/06/09 09:53:09;;;;;;;14.00;5.32;;;24.00;99.90;;;;;;5053608;28;20191;-64
2023/06/09 09:55:37;;;;;;;12.90;4.63;;;24.10;99.90;;;;;;5053589;28;20180;-65
2023/06/09 09:58:08;;;;;;;13.35;5.30;;;24.80;99.90;;;;;;5053388;28;20196;-65
2023/06/09 10:00:36;;;;;;;15.10;5.38;;;24.50;99.90;;;;;;5053560;28;20201;-64
2023/06/09 10:03:07;;;;;;;13.35;5.38;;;24.50;99.90;;;;;;5053442;28;20219;-64
2023/06/09 10:05:35;;;;;;;13.63;5.53;;;24.60;99.90;;;;;;5053351;28;20199;-64
2023/06/09 10:08:03;;;;;;;14.60;4.97;;;24.60;99.90;;;;;;5053587;28;20188;-64
2023/06/09 10:10:30;;;;;;;13.85;5.30;;;24.70;99.90;;;;;;5053284;28;20201;-64
2023/06/09 10:12:57;;;;;;;13.75;5.15;;;24.70;99.90;;;;;;5053320;28;20169;-64
2023/06/09 10:15:24;;;;;;;16.67;5.05;;;24.80;99.90;;;;;;5053098;28;20195;-64
2023/06/09 10:17:53;;;;;;;12.60;5.50;;;24.70;99.90;;;;;;5053181;28;20173;-63
2023/06/09 10:20:19;;;;;;;20.23;5.38;;;24.90;99.90;;;;;;5052867;28;20234;-64
2023/06/09 10:22:46;;;;;;;17.73;6.05;;;24.70;99.90;;;;;;5035129;28;20169;-64
2023/06/09 10:25:12;;;;;;;15.23;6.10;;;24.80;99.90;;;;;;5053047;28;20180;-65
2023/06/09 10:27:39;;;;;;;18.60;5.45;;;25.30;99.90;;;;;;5052901;28;20539;-65
2023/06/09 10:30:05;;;;;;;15.15;5.85;;;25.20;99.90;;;;;;5052856;28;20350;-65
2023/06/09 10:32:34;;;;;;;13.00;5.90;;;25.20;99.90;;;;;;5052773;28;20162;-65
2023/06/09 10:35:02;;;;;;;15.40;5.30;;;25.60;99.90;;;;;;5052782;28;20184;-65
2023/06/09 10:37:32;;;;;;;14.48;5.07;;;25.90;99.90;;;;;;5052653;28;20351;-65
2023/06/09 10:40:05;;;;;;;16.90;5.68;;;25.70;99.90;;;;;;5052875;28;20207;-65
2023/06/09 10:43:15;;;;;;;15.93;5.75;;;25.80;99.90;;;;;;5061134;28;20191;-65
2023/06/09 10:45:54;;;;;;;19.73;6.00;;;26.00;99.90;;;;;;5070888;28;20172;-65
2023/06/09 10:48:46;;;;;;;16.20;5.80;;;26.10;99.90;;;;;;5052458;28;20596;-65
2023/06/09 10:51:26;;;;;;;15.25;5.43;;;26.30;99.90;;;;;;5052826;28;20173;-68
2023/06/09 10:54:10;;;;;;;13.98;5.82;;;26.60;99.90;;;;;;5052509;28;20181;-65
2023/06/09 10:56:41;;;;;;;12.23;5.50;;;26.30;99.90;;;;;;5052448;28;20316;-64
2023/06/09 10:59:28;;;;;;;17.80;5.93;;;26.30;99.90;;;;;;5046228;28;20169;-65
2023/06/09 11:02:02;;;;;;;14.30;5.63;;;26.80;99.90;;;;;;5058383;28;20199;-65
2023/06/09 11:04:41;;;;;;;13.43;5.45;;;26.90;99.90;;;;;;5072201;28;20255;-65
2023/06/09 11:07:17;;;;;;;15.05;5.65;;;26.80;99.90;;;;;;5072053;28;20172;-65
2023/06/09 11:09:51;;;;;;;14.90;5.45;;;26.90;99.90;;;;;;5072069;28;20763;-65
2023/06/09 11:12:42;;;;;;;15.90;5.78;;;27.70;99.90;;;;;;5072009;28;20171;-64
2023/06/09 11:15:09;;;;;;;12.07;5.20;;;27.00;99.90;;;;;;5062792;28;20184;-65
2023/06/09 11:17:43;;;;;;;17.65;6.25;;;26.80;99.90;;;;;;5072013;28;20164;-65
2023/06/09 11:20:09;;;;;;;16.48;5.38;;;26.60;99.90;;;;;;5072146;28;20177;-65
2023/06/09 11:22:52;;;;;;;14.57;5.72;;;27.10;99.90;;;;;;5071779;28;20180;-65
2023/06/09 11:25:17;;;;;;;14.48;5.32;;;27.30;99.90;;;;;;5071856;28;20217;-65
2023/06/09 11:27:55;;;;;;;13.23;5.43;;;27.40;99.90;;;;;;5071876;28;20168;-65
2023/06/09 11:30:23;;;;;;;15.02;5.75;;;27.70;99.90;;;;;;5071903;28;20247;-65
2023/06/09 11:32:54;;;;;;;12.38;5.50;;;28.10;99.90;;;;;;5073305;28;20160;-62
2023/06/09 11:35:25;;;;;;;14.50;5.78;;;28.20;99.90;;;;;;5064580;28;20184;-63
2023/06/09 11:37:56;;;;;;;13.57;5.63;;;28.50;99.90;;;;;;5052863;28;20200;-63
2023/06/09 11:40:22;;;;;;;15.35;6.07;;;28.60;99.90;;;;;;5051713;28;20180;-65
2023/06/09 11:42:49;;;;;;;18.33;5.75;;;28.80;99.90;;;;;;5051686;28;20217;-64
2023/06/09 11:45:15;;;;;;;13.07;5.72;;;29.10;99.90;;;;;;5051566;28;20224;-64
2023/06/09 11:47:42;;;;;;;13.60;5.30;;;28.80;99.90;;;;;;5051332;28;20204;-64
2023/06/09 11:50:12;;;;;;;15.85;6.22;;;28.30;99.90;;;;;;5051812;28;20270;-64
2023/06/09 11:52:45;;;;;;;13.32;5.82;;;28.50;99.90;;;;;;5051586;28;20166;-65
2023/06/09 11:55:13;;;;;;;10.88;5.53;;;28.50;99.90;;;;;;5050986;28;20176;-65
2023/06/09 11:57:39;;;;;;;15.25;5.35;;;28.30;99.90;;;;;;5051641;28;20188;-65
2023/06/09 12:00:12;;;;;;;11.25;5.10;;;28.80;99.90;;;;;;5051240;28;20244;-65
2023/06/09 12:02:38;;;;;;;15.57;6.22;;;29.70;99.90;;;;;;5051564;28;20180;-65
2023/06/09 12:05:09;;;;;;;15.75;5.75;;;29.00;99.90;;;;;;5051233;28;20173;-65
2023/06/09 12:07:35;;;;;;;17.65;5.57;;;29.10;99.90;;;;;;5051010;28;20260;-66
2023/06/09 12:10:00;;;;;;;19.60;6.18;;;29.70;97.20;;;;;;5051026;28;20213;-66
2023/06/09 12:12:26;;;;;;;15.02;5.65;;;29.70;93.30;;;;;;5051035;28;20174;-65
2023/06/09 12:14:52;;;;;;;13.90;5.15;;;29.80;94.10;;;;;;5050879;28;20173;-64
2023/06/09 12:17:18;;;;;;;13.07;5.45;;;30.00;94.40;;;;;;5050880;28;20180;-64
2023/06/09 12:19:47;;;;;;;13.30;5.07;;;29.80;92.60;;;;;;5050999;28;20173;-64
2023/06/09 12:22:12;;;;;;;15.32;5.80;;;30.40;90.60;;;;;;5051051;28;20256;-65
2023/06/09 12:24:38;;;;;;;10.15;5.18;;;30.50;76.90;;;;;;5050948;28;20713;-65
2023/06/09 12:27:14;;;;;;;13.63;5.47;;;30.90;63.70;;;;;;5050869;28;20892;-64
2023/06/09 12:29:40;;;;;;;15.00;5.70;;;30.80;61.40;;;;;;5050956;28;20253;-64
2023/06/09 12:32:08;;;;;;;16.23;5.35;;;30.70;59.60;;;;;;5050712;28;20170;-64
2023/06/09 12:34:34;;;;;;;17.73;5.90;;;31.20;52.00;;;;;;5050974;28;20180;-64
2023/06/09 12:37:06;;;;;;;14.68;5.18;;;31.10;51.40;;;;;;5050771;28;20220;-77
2023/06/09 12:39:35;;;;;;;18.42;5.72;;;30.40;46.90;;;;;;5051080;28;20169;-78
2023/06/09 12:42:11;;;;;;;13.02;5.38;;;30.70;47.60;;;;;;5050789;28;20172;-78